Nrc Columbia — WDA8288 — position and weather

sailwx.info

Track history (hours):
 
Tides and Currents Weather Stations Pressure Air Temp Water Temp Dewpoint Dewpoint Depression Visibility Wind Speed Wind Dir Waves Ship Positions

Nrc Columbia

Owner: National Response Corporation, The Woodlands, TX. More information available from US FCC via Universal Licensing System and Coast Guard Vessel Documentation Center.

Last reported at 2018-Feb-25 17:12 UTC. Time now 2018-Feb-25 18:14 UTC.
Position N 48°49' W 122°44'.

Length 35 m.

Type: Pollution control. MMSI: 366710170.

Date/timePositionNaut miles runAvg speedWind from/ knotsBaromVisibWave heightAir tempDewpointWater temp
2018-Feb-25 17:12N 48°49' W 122°44'1 7.6
2018-Feb-25 17:00N 48°47' W 122°44'4 8.0
2018-Feb-25 16:29N 48°44' W 122°40'4 8.1
2018-Feb-25 15:59N 48°41' W 122°36'3 6.6
2018-Feb-25 15:30N 48°43' W 122°33'1 0.1
2018-Feb-24 20:52N 48°43' W 122°31'0 0.0
2018-Feb-24 20:28N 48°43' W 122°31'0 0.0
2018-Feb-23 22:35N 48°43' W 122°31'0 2.6
2018-Feb-23 22:30N 48°43' W 122°31'4 7.3
2018-Feb-23 22:00N 48°40' W 122°34'4 6.9
2018-Feb-23 21:29N 48°42' W 122°39'5 7.8
2018-Feb-23 20:54N 48°46' W 122°43'  
Track history (hours):
 
Tides and Currents Weather Stations Pressure Air Temp Water Temp Dewpoint Dewpoint Depression Visibility Wind Speed Wind Dir Waves Ship Positions

Nrc Columbia

Owner: National Response Corporation, The Woodlands, TX. More information available from US FCC via Universal Licensing System and Coast Guard Vessel Documentation Center.

Last reported at 2018-Feb-25 17:12 UTC. Time now 2018-Feb-25 18:14 UTC.
Position N 48°49' W 122°44'.

Length 35 m.

Type: Pollution control. MMSI: 366710170.

Date/timePositionNaut miles runAvg speedWind from/ knotsBaromVisibWave heightAir tempDewpointWater temp
2018-Feb-25 17:12N 48°49' W 122°44'1 7.6
2018-Feb-25 17:00N 48°47' W 122°44'4 8.0
2018-Feb-25 16:29N 48°44' W 122°40'4 8.1
2018-Feb-25 15:59N 48°41' W 122°36'3 6.6
2018-Feb-25 15:30N 48°43' W 122°33'1 0.1
2018-Feb-24 20:52N 48°43' W 122°31'0 0.0
2018-Feb-24 20:28N 48°43' W 122°31'0 0.0
2018-Feb-23 22:35N 48°43' W 122°31'0 2.6
2018-Feb-23 22:30N 48°43' W 122°31'4 7.3
2018-Feb-23 22:00N 48°40' W 122°34'4 6.9
2018-Feb-23 21:29N 48°42' W 122°39'5 7.8
2018-Feb-23 20:54N 48°46' W 122°43'  

Dump ship's entire track history